sensor_id;sensor_type;location;lat;lon;timestamp;pressure;altitude;pressure_sealevel;temperature;humidity
42001;BME280;27689;48.390;10.856;2024-03-29T00:01:42;94759.63;;;4.04;100.00
42001;BME280;27689;48.390;10.856;2024-03-29T00:04:27;94751.75;;;3.96;100.00
42001;BME280;27689;48.390;10.856;2024-03-29T00:07:11;94757.03;;;4.04;100.00
42001;BME280;27689;48.390;10.856;2024-03-29T00:09:55;94746.94;;;4.01;100.00
42001;BME280;27689;48.390;10.856;2024-03-29T00:12:39;94754.19;;;3.98;100.00
42001;BME280;27689;48.390;10.856;2024-03-29T00:15:23;94754.47;;;3.95;100.00
42001;BME280;27689;48.390;10.856;2024-03-29T00:18:07;94748.50;;;3.84;100.00
42001;BME280;27689;48.390;10.856;2024-03-29T00:20:51;94740.72;;;3.84;100.00
42001;BME280;27689;48.390;10.856;2024-03-29T00:23:35;94730.25;;;3.76;100.00
42001;BME280;27689;48.390;10.856;2024-03-29T00:26:19;94730.38;;;3.75;100.00
42001;BME280;27689;48.390;10.856;2024-03-29T00:29:03;94737.06;;;3.77;100.00
42001;BME280;27689;48.390;10.856;2024-03-29T00:31:47;94745.78;;;3.76;100.00
42001;BME280;27689;48.390;10.856;2024-03-29T00:34:31;94754.09;;;3.80;100.00
42001;BME280;27689;48.390;10.856;2024-03-29T00:37:15;94743.19;;;3.76;100.00
42001;BME280;27689;48.390;10.856;2024-03-29T00:40:02;94750.97;;;3.76;100.00
42001;BME280;27689;48.390;10.856;2024-03-29T00:42:46;94738.97;;;3.75;100.00
42001;BME280;27689;48.390;10.856;2024-03-29T00:45:30;94737.31;;;3.74;100.00
42001;BME280;27689;48.390;10.856;2024-03-29T00:48:14;94719.88;;;3.76;100.00
42001;BME280;27689;48.390;10.856;2024-03-29T00:51:01;94723.16;;;3.78;100.00
42001;BME280;27689;48.390;10.856;2024-03-29T00:53:45;94714.56;;;3.78;100.00
42001;BME280;27689;48.390;10.856;2024-03-29T00:56:28;94706.53;;;3.71;100.00
42001;BME280;27689;48.390;10.856;2024-03-29T00:59:12;94700.28;;;3.64;100.00
42001;BME280;27689;48.390;10.856;2024-03-29T01:01:56;94701.66;;;3.68;100.00
42001;BME280;27689;48.390;10.856;2024-03-29T01:04:41;94689.09;;;3.64;100.00
42001;BME280;27689;48.390;10.856;2024-03-29T01:07:24;94696.75;;;3.65;100.00
42001;BME280;27689;48.390;10.856;2024-03-29T01:10:09;94685.84;;;3.62;100.00
42001;BME280;27689;48.390;10.856;2024-03-29T01:12:52;94676.31;;;3.62;100.00
42001;BME280;27689;48.390;10.856;2024-03-29T01:15:36;94649.34;;;3.55;100.00
42001;BME280;27689;48.390;10.856;2024-03-29T01:18:20;94648.41;;;3.56;100.00
42001;BME280;27689;48.390;10.856;2024-03-29T01:21:04;94632.88;;;3.56;100.00
42001;BME280;27689;48.390;10.856;2024-03-29T01:23:48;94627.69;;;3.56;100.00
42001;BME280;27689;48.390;10.856;2024-03-29T01:26:32;94627.81;;;3.54;100.00
42001;BME280;27689;48.390;10.856;2024-03-29T01:29:16;94640.38;;;3.49;100.00
42001;BME280;27689;48.390;10.856;2024-03-29T01:32:00;94633.56;;;3.48;100.00
42001;BME280;27689;48.390;10.856;2024-03-29T01:34:44;94624.69;;;3.41;100.00
42001;BME280;27689;48.390;10.856;2024-03-29T01:37:28;94627.59;;;3.38;100.00
42001;BME280;27689;48.390;10.856;2024-03-29T01:40:12;94625.41;;;3.34;100.00
42001;BME280;27689;48.390;10.856;2024-03-29T01:42:55;94621.88;;;3.35;100.00
42001;BME280;27689;48.390;10.856;2024-03-29T01:45:41;94611.38;;;3.27;100.00
42001;BME280;27689;48.390;10.856;2024-03-29T01:48:26;94610.06;;;3.23;100.00
42001;BME280;27689;48.390;10.856;2024-03-29T01:51:12;94619.31;;;3.15;100.00
42001;BME280;27689;48.390;10.856;2024-03-29T01:53:58;94616.59;;;3.17;100.00
42001;BME280;27689;48.390;10.856;2024-03-29T01:56:42;94603.94;;;3.24;100.00
42001;BME280;27689;48.390;10.856;2024-03-29T01:59:28;94613.56;;;3.31;100.00
42001;BME280;27689;48.390;10.856;2024-03-29T02:02:13;94615.47;;;3.39;100.00
42001;BME280;27689;48.390;10.856;2024-03-29T02:04:57;94618.06;;;3.39;100.00
42001;BME280;27689;48.390;10.856;2024-03-29T02:07:41;94615.84;;;3.44;100.00
42001;BME280;27689;48.390;10.856;2024-03-29T02:10:26;94629.19;;;3.49;100.00
42001;BME280;27689;48.390;10.856;2024-03-29T02:13:10;94625.94;;;3.47;100.00
42001;BME280;27689;48.390;10.856;2024-03-29T02:15:54;94626.75;;;3.47;100.00
42001;BME280;27689;48.390;10.856;2024-03-29T02:18:38;94626.88;;;3.46;100.00
42001;BME280;27689;48.390;10.856;2024-03-29T02:21:22;94612.88;;;3.39;100.00
42001;BME280;27689;48.390;10.856;2024-03-29T02:24:06;94620.22;;;3.43;100.00
42001;BME280;27689;48.390;10.856;2024-03-29T02:26:51;94620.22;;;3.43;100.00
42001;BME280;27689;48.390;10.856;2024-03-29T02:29:35;94606.56;;;3.51;100.00
42001;BME280;27689;48.390;10.856;2024-03-29T02:32:20;94624.97;;;3.48;100.00
42001;BME280;27689;48.390;10.856;2024-03-29T02:35:03;94618.84;;;3.49;100.00
42001;BME280;27689;48.390;10.856;2024-03-29T02:37:47;94605.19;;;3.57;100.00
42001;BME280;27689;48.390;10.856;2024-03-29T02:40:31;94588.03;;;3.56;100.00
42001;BME280;27689;48.390;10.856;2024-03-29T02:43:15;94587.06;;;3.57;100.00
42001;BME280;27689;48.390;10.856;2024-03-29T02:45:59;94592.22;;;3.66;100.00
42001;BME280;27689;48.390;10.856;2024-03-29T02:48:43;94605.41;;;3.73;100.00
42001;BME280;27689;48.390;10.856;2024-03-29T02:51:27;94614.72;;;3.93;100.00
42001;BME280;27689;48.390;10.856;2024-03-29T02:54:11;94620.59;;;3.95;100.00
42001;BME280;27689;48.390;10.856;2024-03-29T02:56:55;94611.59;;;3.89;100.00
42001;BME280;27689;48.390;10.856;2024-03-29T02:59:42;94609.00;;;3.89;100.00
42001;BME280;27689;48.390;10.856;2024-03-29T03:02:26;94618.56;;;3.89;100.00
42001;BME280;27689;48.390;10.856;2024-03-29T03:05:10;94615.00;;;3.90;100.00
42001;BME280;27689;48.390;10.856;2024-03-29T03:07:54;94606.69;;;3.86;100.00
42001;BME280;27689;48.390;10.856;2024-03-29T03:10:56;94603.97;;;3.88;100.00
42001;BME280;27689;48.390;10.856;2024-03-29T03:13:42;94608.63;;;3.84;100.00
42001;BME280;27689;48.390;10.856;2024-03-29T03:16:26;94619.28;;;3.81;100.00
42001;BME280;27689;48.390;10.856;2024-03-29T03:19:10;94611.88;;;3.86;100.00
42001;BME280;27689;48.390;10.856;2024-03-29T03:21:54;94598.94;;;3.86;100.00
42001;BME280;27689;48.390;10.856;2024-03-29T03:24:38;94591.47;;;3.83;100.00
42001;BME280;27689;48.390;10.856;2024-03-29T03:27:22;94579.75;;;3.79;100.00
42001;BME280;27689;48.390;10.856;2024-03-29T03:30:07;94563.13;;;3.72;100.00
42001;BME280;27689;48.390;10.856;2024-03-29T03:32:51;94578.69;;;3.72;100.00
42001;BME280;27689;48.390;10.856;2024-03-29T03:35:35;94581.44;;;3.71;100.00
42001;BME280;27689;48.390;10.856;2024-03-29T03:38:19;94578.72;;;3.63;100.00
42001;BME280;27689;48.390;10.856;2024-03-29T03:41:03;94575.56;;;3.32;100.00
42001;BME280;27689;48.390;10.856;2024-03-29T03:43:47;94581.75;;;3.11;100.00
42001;BME280;27689;48.390;10.856;2024-03-29T03:46:31;94585.44;;;3.09;100.00
42001;BME280;27689;48.390;10.856;2024-03-29T03:49:15;94601.91;;;3.08;100.00
42001;BME280;27689;48.390;10.856;2024-03-29T03:51:59;94587.72;;;3.12;100.00
42001;BME280;27689;48.390;10.856;2024-03-29T03:54:43;94592.75;;;3.13;100.00
42001;BME280;27689;48.390;10.856;2024-03-29T03:57:27;94588.53;;;3.12;100.00
42001;BME280;27689;48.390;10.856;2024-03-29T04:00:11;94583.94;;;3.06;100.00
42001;BME280;27689;48.390;10.856;2024-03-29T04:02:55;94583.25;;;3.04;100.00
42001;BME280;27689;48.390;10.856;2024-03-29T04:05:40;94588.69;;;3.01;100.00
42001;BME280;27689;48.390;10.856;2024-03-29T04:08:24;94577.53;;;3.01;100.00
42001;BME280;27689;48.390;10.856;2024-03-29T04:11:07;94559.69;;;2.98;100.00
42001;BME280;27689;48.390;10.856;2024-03-29T04:13:52;94553.72;;;2.97;100.00
42001;BME280;27689;48.390;10.856;2024-03-29T04:16:36;94556.97;;;2.99;100.00
42001;BME280;27689;48.390;10.856;2024-03-29T04:19:20;94568.00;;;3.01;100.00
42001;BME280;27689;48.390;10.856;2024-03-29T04:22:04;94560.53;;;3.08;100.00
42001;BME280;27689;48.390;10.856;2024-03-29T04:24:49;94551.13;;;3.07;100.00
42001;BME280;27689;48.390;10.856;2024-03-29T04:27:32;94559.56;;;2.99;100.00
42001;BME280;27689;48.390;10.856;2024-03-29T04:30:16;94560.25;;;3.01;100.00
42001;BME280;27689;48.390;10.856;2024-03-29T04:33:00;94543.09;;;3.00;100.00
42001;BME280;27689;48.390;10.856;2024-03-29T04:35:58;94542.81;;;3.03;100.00
42001;BME280;27689;48.390;10.856;2024-03-29T04:38:43;94539.41;;;3.03;100.00
42001;BME280;27689;48.390;10.856;2024-03-29T04:41:28;94544.31;;;3.06;100.00
42001;BME280;27689;48.390;10.856;2024-03-29T04:44:13;94548.41;;;3.08;100.00
42001;BME280;27689;48.390;10.856;2024-03-29T04:46:57;94552.19;;;3.24;100.00
42001;BME280;27689;48.390;10.856;2024-03-29T04:49:41;94531.28;;;3.35;100.00
42001;BME280;27689;48.390;10.856;2024-03-29T04:52:26;94521.47;;;3.38;100.00
42001;BME280;27689;48.390;10.856;2024-03-29T04:55:09;94530.81;;;3.49;100.00
42001;BME280;27689;48.390;10.856;2024-03-29T04:57:53;94509.03;;;3.51;100.00
42001;BME280;27689;48.390;10.856;2024-03-29T05:00:37;94499.84;;;3.57;100.00
42001;BME280;27689;48.390;10.856;2024-03-29T05:03:21;94505.13;;;3.65;100.00
42001;BME280;27689;48.390;10.856;2024-03-29T05:06:06;94500.78;;;3.66;100.00
42001;BME280;27689;48.390;10.856;2024-03-29T05:08:50;94524.63;;;3.69;100.00
42001;BME280;27689;48.390;10.856;2024-03-29T05:11:34;94521.44;;;3.75;100.00
42001;BME280;27689;48.390;10.856;2024-03-29T05:14:21;94524.69;;;3.77;100.00
42001;BME280;27689;48.390;10.856;2024-03-29T05:17:05;94523.31;;;3.83;100.00
42001;BME280;27689;48.390;10.856;2024-03-29T05:19:50;94516.03;;;3.86;100.00
42001;BME280;27689;48.390;10.856;2024-03-29T05:22:34;94523.53;;;3.89;100.00
42001;BME280;27689;48.390;10.856;2024-03-29T05:25:18;94534.28;;;3.95;100.00
42001;BME280;27689;48.390;10.856;2024-03-29T05:28:02;94540.00;;;3.98;100.00
42001;BME280;27689;48.390;10.856;2024-03-29T05:30:48;94542.44;;;4.00;100.00
42001;BME280;27689;48.390;10.856;2024-03-29T05:33:32;94541.44;;;4.01;100.00
42001;BME280;27689;48.390;10.856;2024-03-29T05:36:16;94566.78;;;4.07;100.00
42001;BME280;27689;48.390;10.856;2024-03-29T05:39:00;94554.22;;;4.12;100.00
42001;BME280;27689;48.390;10.856;2024-03-29T05:41:44;94568.06;;;4.20;100.00
42001;BME280;27689;48.390;10.856;2024-03-29T05:44:28;94565.34;;;4.22;100.00
42001;BME280;27689;48.390;10.856;2024-03-29T05:47:11;94577.72;;;4.28;100.00
42001;BME280;27689;48.390;10.856;2024-03-29T05:49:55;94581.28;;;4.27;100.00
42001;BME280;27689;48.390;10.856;2024-03-29T05:52:39;94590.06;;;4.34;100.00
42001;BME280;27689;48.390;10.856;2024-03-29T05:55:23;94592.09;;;4.40;100.00
42001;BME280;27689;48.390;10.856;2024-03-29T05:58:07;94571.50;;;4.39;100.00
42001;BME280;27689;48.390;10.856;2024-03-29T06:00:51;94571.50;;;4.39;100.00
42001;BME280;27689;48.390;10.856;2024-03-29T06:03:35;94557.28;;;4.43;100.00
42001;BME280;27689;48.390;10.856;2024-03-29T06:06:19;94566.53;;;4.45;100.00
42001;BME280;27689;48.390;10.856;2024-03-29T06:09:07;94552.16;;;4.51;100.00
42001;BME280;27689;48.390;10.856;2024-03-29T06:11:53;94550.16;;;4.63;100.00
42001;BME280;27689;48.390;10.856;2024-03-29T06:14:39;94554.91;;;4.67;100.00
42001;BME280;27689;48.390;10.856;2024-03-29T06:17:42;94564.38;;;4.76;100.00
42001;BME280;27689;48.390;10.856;2024-03-29T06:20:26;94570.91;;;4.80;100.00
42001;BME280;27689;48.390;10.856;2024-03-29T06:23:10;94563.78;;;4.82;100.00
42001;BME280;27689;48.390;10.856;2024-03-29T06:25:54;94559.25;;;4.84;100.00
42001;BME280;27689;48.390;10.856;2024-03-29T06:28:38;94557.69;;;4.91;100.00
42001;BME280;27689;48.390;10.856;2024-03-29T06:31:23;94570.81;;;4.90;100.00
42001;BME280;27689;48.390;10.856;2024-03-29T06:34:07;94566.13;;;4.93;100.00
42001;BME280;27689;48.390;10.856;2024-03-29T06:36:51;94567.47;;;4.97;100.00
42001;BME280;27689;48.390;10.856;2024-03-29T06:39:35;94569.41;;;4.95;100.00
42001;BME280;27689;48.390;10.856;2024-03-29T06:42:20;94576.88;;;4.99;100.00
42001;BME280;27689;48.390;10.856;2024-03-29T06:45:04;94571.91;;;5.05;100.00
42001;BME280;27689;48.390;10.856;2024-03-29T06:47:49;94582.66;;;5.10;100.00
42001;BME280;27689;48.390;10.856;2024-03-29T06:50:33;94573.97;;;5.19;100.00
42001;BME280;27689;48.390;10.856;2024-03-29T06:53:17;94583.59;;;5.27;100.00
42001;BME280;27689;48.390;10.856;2024-03-29T06:56:10;94593.41;;;5.41;100.00
42001;BME280;27689;48.390;10.856;2024-03-29T06:58:54;94582.59;;;5.54;100.00
42001;BME280;27689;48.390;10.856;2024-03-29T07:01:38;94576.81;;;5.60;100.00
42001;BME280;27689;48.390;10.856;2024-03-29T07:04:23;94583.38;;;5.80;99.96
42001;BME280;27689;48.390;10.856;2024-03-29T07:07:07;94561.56;;;5.91;99.26
42001;BME280;27689;48.390;10.856;2024-03-29T07:09:51;94568.91;;;6.04;95.80
42001;BME280;27689;48.390;10.856;2024-03-29T07:12:35;94586.97;;;6.13;97.17
42001;BME280;27689;48.390;10.856;2024-03-29T07:15:19;94574.06;;;6.38;97.99
42001;BME280;27689;48.390;10.856;2024-03-29T07:18:03;94572.00;;;6.82;94.10
42001;BME280;27689;48.390;10.856;2024-03-29T07:20:47;94562.25;;;7.08;94.13
42001;BME280;27689;48.390;10.856;2024-03-29T07:23:31;94556.38;;;7.22;95.96
42001;BME280;27689;48.390;10.856;2024-03-29T07:26:15;94562.53;;;7.37;91.32
42001;BME280;27689;48.390;10.856;2024-03-29T07:28:59;94574.06;;;7.51;87.00
42001;BME280;27689;48.390;10.856;2024-03-29T07:31:43;94556.78;;;7.66;87.90
42001;BME280;27689;48.390;10.856;2024-03-29T07:34:27;94586.56;;;7.80;90.04
42001;BME280;27689;48.390;10.856;2024-03-29T07:37:11;94583.28;;;7.86;87.80
42001;BME280;27689;48.390;10.856;2024-03-29T07:39:58;94582.91;;;7.97;85.75
42001;BME280;27689;48.390;10.856;2024-03-29T07:42:42;94588.56;;;8.09;88.33
42001;BME280;27689;48.390;10.856;2024-03-29T07:45:27;94594.06;;;8.22;83.33
42001;BME280;27689;48.390;10.856;2024-03-29T07:48:13;94606.78;;;8.25;84.20
42001;BME280;27689;48.390;10.856;2024-03-29T07:50:57;94608.22;;;8.36;80.47
42001;BME280;27689;48.390;10.856;2024-03-29T07:53:41;94609.84;;;8.29;82.63
42001;BME280;27689;48.390;10.856;2024-03-29T07:56:26;94607.41;;;8.27;81.28
42001;BME280;27689;48.390;10.856;2024-03-29T07:59:09;94623.09;;;8.19;80.35
42001;BME280;27689;48.390;10.856;2024-03-29T08:01:53;94617.53;;;8.22;80.41
42001;BME280;27689;48.390;10.856;2024-03-29T08:04:39;94632.69;;;8.27;87.98
42001;BME280;27689;48.390;10.856;2024-03-29T08:07:27;94610.66;;;8.29;88.58
42001;BME280;27689;48.390;10.856;2024-03-29T08:10:11;94599.44;;;8.21;89.61
42001;BME280;27689;48.390;10.856;2024-03-29T08:12:55;94595.53;;;8.25;88.22
42001;BME280;27689;48.390;10.856;2024-03-29T08:15:38;94604.69;;;8.12;89.55
42001;BME280;27689;48.390;10.856;2024-03-29T08:18:22;94620.03;;;8.16;91.24
42001;BME280;27689;48.390;10.856;2024-03-29T08:21:07;94621.63;;;8.17;90.56
42001;BME280;27689;48.390;10.856;2024-03-29T08:23:55;94614.13;;;8.22;90.87
42001;BME280;27689;48.390;10.856;2024-03-29T08:26:40;94606.94;;;8.24;90.49
42001;BME280;27689;48.390;10.856;2024-03-29T08:29:24;94607.91;;;8.31;92.04
42001;BME280;27689;48.390;10.856;2024-03-29T08:32:09;94620.09;;;8.38;91.73
42001;BME280;27689;48.390;10.856;2024-03-29T08:34:53;94625.47;;;8.45;91.65
42001;BME280;27689;48.390;10.856;2024-03-29T08:37:38;94614.34;;;8.51;90.52
42001;BME280;27689;48.390;10.856;2024-03-29T08:40:22;94609.03;;;8.67;91.50
42001;BME280;27689;48.390;10.856;2024-03-29T08:43:06;94610.91;;;8.81;90.83
42001;BME280;27689;48.390;10.856;2024-03-29T08:45:50;94597.28;;;8.94;91.22
42001;BME280;27689;48.390;10.856;2024-03-29T08:48:34;94587.22;;;9.06;87.67
42001;BME280;27689;48.390;10.856;2024-03-29T08:51:20;94581.53;;;9.25;88.67
42001;BME280;27689;48.390;10.856;2024-03-29T08:54:04;94584.34;;;9.38;85.39
42001;BME280;27689;48.390;10.856;2024-03-29T08:56:48;94580.31;;;9.50;86.89
42001;BME280;27689;48.390;10.856;2024-03-29T08:59:32;94585.13;;;9.62;86.70
42001;BME280;27689;48.390;10.856;2024-03-29T09:02:17;94577.91;;;9.64;82.44
42001;BME280;27689;48.390;10.856;2024-03-29T09:05:02;94580.63;;;9.70;81.90
42001;BME280;27689;48.390;10.856;2024-03-29T09:07:46;94576.66;;;9.74;83.41
42001;BME280;27689;48.390;10.856;2024-03-29T09:10:30;94577.56;;;9.81;83.52
42001;BME280;27689;48.390;10.856;2024-03-29T09:13:14;94567.53;;;9.85;81.04
42001;BME280;27689;48.390;10.856;2024-03-29T09:15:58;94559.34;;;9.88;80.45
42001;BME280;27689;48.390;10.856;2024-03-29T09:18:42;94571.97;;;9.99;80.66
42001;BME280;27689;48.390;10.856;2024-03-29T09:21:26;94560.84;;;10.12;81.96
42001;BME280;27689;48.390;10.856;2024-03-29T09:24:10;94556.63;;;10.11;77.81
42001;BME280;27689;48.390;10.856;2024-03-29T09:26:55;94567.50;;;10.22;79.14
42001;BME280;27689;48.390;10.856;2024-03-29T09:33:32;94572.69;;;10.37;81.17
42001;BME280;27689;48.390;10.856;2024-03-29T09:37:01;94577.91;;;10.52;78.45
42001;BME280;27689;48.390;10.856;2024-03-29T09:43:16;94583.59;;;10.77;82.68
42001;BME280;27689;48.390;10.856;2024-03-29T09:46:08;94598.84;;;10.88;82.16
42001;BME280;27689;48.390;10.856;2024-03-29T09:48:56;94616.50;;;11.01;81.96
42001;BME280;27689;48.390;10.856;2024-03-29T09:51:42;94626.13;;;11.15;77.65
42001;BME280;27689;48.390;10.856;2024-03-29T09:54:29;94628.81;;;11.21;73.74
42001;BME280;27689;48.390;10.856;2024-03-29T09:57:15;94617.00;;;11.53;78.93
42001;BME280;27689;48.390;10.856;2024-03-29T10:00:01;94606.59;;;11.66;75.67
42001;BME280;27689;48.390;10.856;2024-03-29T10:02:53;94613.88;;;11.92;76.57
42001;BME280;27689;48.390;10.856;2024-03-29T10:05:39;94609.34;;;12.08;76.67
42001;BME280;27689;48.390;10.856;2024-03-29T10:08:31;94606.66;;;12.29;77.35
42001;BME280;27689;48.390;10.856;2024-03-29T10:11:16;94597.63;;;12.45;76.63
42001;BME280;27689;48.390;10.856;2024-03-29T10:14:02;94601.31;;;12.57;72.89
42001;BME280;27689;48.390;10.856;2024-03-29T10:16:47;94593.88;;;12.60;71.00
42001;BME280;27689;48.390;10.856;2024-03-29T10:19:31;94592.25;;;12.66;71.35
42001;BME280;27689;48.390;10.856;2024-03-29T10:22:15;94580.56;;;12.82;71.80
42001;BME280;27689;48.390;10.856;2024-03-29T10:25:03;94575.56;;;13.06;72.97
42001;BME280;27689;48.390;10.856;2024-03-29T10:27:49;94576.47;;;13.33;74.45
42001;BME280;27689;48.390;10.856;2024-03-29T10:30:33;94603.19;;;13.50;71.98
42001;BME280;27689;48.390;10.856;2024-03-29T10:33:17;94597.31;;;13.48;71.52
42001;BME280;27689;48.390;10.856;2024-03-29T10:36:02;94604.59;;;13.59;72.20
42001;BME280;27689;48.390;10.856;2024-03-29T10:38:50;94586.59;;;13.56;73.72
42001;BME280;27689;48.390;10.856;2024-03-29T10:41:34;94595.50;;;13.62;73.42
42001;BME280;27689;48.390;10.856;2024-03-29T10:44:20;94591.44;;;13.59;71.38
42001;BME280;27689;48.390;10.856;2024-03-29T10:47:06;94597.50;;;13.53;69.99
42001;BME280;27689;48.390;10.856;2024-03-29T10:49:51;94585.34;;;13.52;71.64
42001;BME280;27689;48.390;10.856;2024-03-29T10:52:35;94604.59;;;13.66;71.90
42001;BME280;27689;48.390;10.856;2024-03-29T10:55:20;94599.13;;;13.48;72.16
42001;BME280;27689;48.390;10.856;2024-03-29T10:58:05;94582.94;;;13.44;72.97
42001;BME280;27689;48.390;10.856;2024-03-29T11:00:53;94588.81;;;13.33;71.74
42001;BME280;27689;48.390;10.856;2024-03-29T11:03:54;94573.63;;;13.15;73.57
42001;BME280;27689;48.390;10.856;2024-03-29T11:06:39;94589.56;;;13.14;73.97
42001;BME280;27689;48.390;10.856;2024-03-29T11:09:28;94583.47;;;13.13;74.20
42001;BME280;27689;48.390;10.856;2024-03-29T11:12:14;94580.69;;;13.15;75.29
42001;BME280;27689;48.390;10.856;2024-03-29T11:15:05;94572.81;;;13.28;74.06
42001;BME280;27689;48.390;10.856;2024-03-29T11:17:55;94571.81;;;13.42;74.81
42001;BME280;27689;48.390;10.856;2024-03-29T11:20:40;94571.41;;;13.45;74.94
42001;BME280;27689;48.390;10.856;2024-03-29T11:23:27;94571.00;;;13.48;74.12
42001;BME280;27689;48.390;10.856;2024-03-29T11:26:11;94575.63;;;13.66;75.31
42001;BME280;27689;48.390;10.856;2024-03-29T11:28:56;94572.63;;;13.62;75.30
42001;BME280;27689;48.390;10.856;2024-03-29T11:31:44;94551.16;;;13.59;75.13
42001;BME280;27689;48.390;10.856;2024-03-29T11:34:31;94568.38;;;13.61;73.70
42001;BME280;27689;48.390;10.856;2024-03-29T11:37:16;94572.59;;;13.69;74.00
42001;BME280;27689;48.390;10.856;2024-03-29T11:40:03;94541.03;;;13.69;75.04
42001;BME280;27689;48.390;10.856;2024-03-29T11:42:47;94543.22;;;13.85;73.66
42001;BME280;27689;48.390;10.856;2024-03-29T11:45:32;94535.72;;;13.95;76.17
42001;BME280;27689;48.390;10.856;2024-03-29T11:48:18;94526.56;;;14.11;76.91
42001;BME280;27689;48.390;10.856;2024-03-29T11:51:09;94512.78;;;14.22;77.06
42001;BME280;27689;48.390;10.856;2024-03-29T11:53:54;94492.50;;;14.23;76.18
42001;BME280;27689;48.390;10.856;2024-03-29T11:56:39;94501.19;;;14.30;73.92
42001;BME280;27689;48.390;10.856;2024-03-29T11:59:24;94497.53;;;14.31;73.99
42001;BME280;27689;48.390;10.856;2024-03-29T12:02:13;94498.31;;;14.44;74.94
42001;BME280;27689;48.390;10.856;2024-03-29T12:04:58;94496.97;;;14.67;74.33
42001;BME280;27689;48.390;10.856;2024-03-29T12:07:45;94488.56;;;14.83;73.65
42001;BME280;27689;48.390;10.856;2024-03-29T12:10:30;94489.13;;;14.92;73.14
42001;BME280;27689;48.390;10.856;2024-03-29T12:13:15;94489.44;;;15.02;73.54
42001;BME280;27689;48.390;10.856;2024-03-29T12:16:01;94477.72;;;15.23;74.56
42001;BME280;27689;48.390;10.856;2024-03-29T12:18:46;94464.22;;;15.12;70.91
42001;BME280;27689;48.390;10.856;2024-03-29T12:21:31;94469.22;;;15.21;72.04
42001;BME280;27689;48.390;10.856;2024-03-29T12:24:16;94470.34;;;15.31;71.61
42001;BME280;27689;48.390;10.856;2024-03-29T12:27:00;94462.16;;;15.39;71.54
42001;BME280;27689;48.390;10.856;2024-03-29T12:29:44;94464.28;;;15.56;71.98
42001;BME280;27689;48.390;10.856;2024-03-29T12:32:28;94461.22;;;15.77;71.36
42001;BME280;27689;48.390;10.856;2024-03-29T12:35:15;94453.69;;;15.99;71.85
42001;BME280;27689;48.390;10.856;2024-03-29T12:38:01;94449.78;;;16.01;72.07
42001;BME280;27689;48.390;10.856;2024-03-29T12:40:47;94451.91;;;16.11;70.54
42001;BME280;27689;48.390;10.856;2024-03-29T12:43:32;94442.16;;;16.11;67.52
42001;BME280;27689;48.390;10.856;2024-03-29T12:46:17;94440.00;;;16.20;67.83
42001;BME280;27689;48.390;10.856;2024-03-29T12:49:01;94440.38;;;16.23;69.40
42001;BME280;27689;48.390;10.856;2024-03-29T12:51:45;94434.50;;;16.03;67.39
42001;BME280;27689;48.390;10.856;2024-03-29T12:54:29;94430.16;;;16.27;68.47
42001;BME280;27689;48.390;10.856;2024-03-29T12:57:13;94429.38;;;16.56;70.36
42001;BME280;27689;48.390;10.856;2024-03-29T12:59:56;94426.72;;;16.98;67.97
42001;BME280;27689;48.390;10.856;2024-03-29T13:02:40;94419.75;;;17.27;64.83
42001;BME280;27689;48.390;10.856;2024-03-29T13:05:24;94420.47;;;17.69;64.03
42001;BME280;27689;48.390;10.856;2024-03-29T13:08:11;94424.47;;;17.95;63.59
42001;BME280;27689;48.390;10.856;2024-03-29T13:10:55;94417.28;;;18.07;62.70
42001;BME280;27689;48.390;10.856;2024-03-29T13:13:39;94408.56;;;18.35;62.60
42001;BME280;27689;48.390;10.856;2024-03-29T13:16:23;94414.16;;;18.50;60.16
42001;BME280;27689;48.390;10.856;2024-03-29T13:19:07;94416.66;;;19.02;61.65
42001;BME280;27689;48.390;10.856;2024-03-29T13:21:51;94408.69;;;19.35;60.45
42001;BME280;27689;48.390;10.856;2024-03-29T13:24:35;94406.38;;;19.56;59.46
42001;BME280;27689;48.390;10.856;2024-03-29T13:27:19;94412.56;;;19.61;58.26
42001;BME280;27689;48.390;10.856;2024-03-29T13:30:05;94404.22;;;19.53;58.46
42001;BME280;27689;48.390;10.856;2024-03-29T13:32:50;94408.03;;;19.62;58.59
42001;BME280;27689;48.390;10.856;2024-03-29T13:35:34;94405.72;;;19.65;58.67
42001;BME280;27689;48.390;10.856;2024-03-29T13:38:18;94392.84;;;19.57;57.66
42001;BME280;27689;48.390;10.856;2024-03-29T13:41:12;94392.22;;;19.50;57.12
42001;BME280;27689;48.390;10.856;2024-03-29T13:44:01;94391.56;;;19.43;58.10
42001;BME280;27689;48.390;10.856;2024-03-29T13:46:49;94394.75;;;19.45;58.87
42001;BME280;27689;48.390;10.856;2024-03-29T13:49:33;94385.44;;;19.43;58.83
42001;BME280;27689;48.390;10.856;2024-03-29T13:52:17;94385.44;;;19.43;58.53
42001;BME280;27689;48.390;10.856;2024-03-29T13:55:02;94398.50;;;19.27;58.37
42001;BME280;27689;48.390;10.856;2024-03-29T13:57:47;94396.47;;;19.18;60.24
42001;BME280;27689;48.390;10.856;2024-03-29T14:00:31;94398.84;;;19.14;59.75
42001;BME280;27689;48.390;10.856;2024-03-29T14:03:16;94392.38;;;19.10;60.19
42001;BME280;27689;48.390;10.856;2024-03-29T14:06:00;94395.66;;;19.17;58.82
42001;BME280;27689;48.390;10.856;2024-03-29T14:08:44;94392.78;;;19.19;60.30
42001;BME280;27689;48.390;10.856;2024-03-29T14:11:28;94390.78;;;19.26;60.50
42001;BME280;27689;48.390;10.856;2024-03-29T14:14:12;94396.88;;;19.26;60.73
42001;BME280;27689;48.390;10.856;2024-03-29T14:16:56;94400.91;;;19.29;60.59
42001;BME280;27689;48.390;10.856;2024-03-29T14:19:40;94401.97;;;19.28;60.66
42001;BME280;27689;48.390;10.856;2024-03-29T14:22:25;94388.84;;;19.21;60.25
42001;BME280;27689;48.390;10.856;2024-03-29T14:25:09;94391.91;;;19.13;61.41
42001;BME280;27689;48.390;10.856;2024-03-29T14:27:54;94388.34;;;18.91;62.14
42001;BME280;27689;48.390;10.856;2024-03-29T14:30:38;94382.06;;;18.80;63.05
42001;BME280;27689;48.390;10.856;2024-03-29T14:33:21;94384.06;;;18.73;63.36